Time;durP1;ratioP1;P1;durP2;ratioP2;P2;SDS_P1;SDS_P2;PMS_P1;PMS_P2;Temp;Humidity;BMP_temperature;BMP_pressure;BME280_temperature;BME280_humidity;BME280_pressure;Samples;Min_cycle;Max_cycle;Signal;HPM_P1;HPM_P2
2023/03/09 00:02:41;;;;;;;67.82;22.90;;;;;;;8.89;77.22;97691.50;12902185;23;20024;-61
2023/03/09 00:07:44;;;;;;;61.20;21.08;;;;;;;8.91;77.17;97691.28;12900712;23;20019;-60
2023/03/09 00:12:45;;;;;;;83.85;24.42;;;;;;;8.87;76.92;97682.88;12901429;22;20050;-59
2023/03/09 00:17:46;;;;;;;105.95;24.55;;;;;;;8.92;77.24;97687.53;12901635;23;20024;-61
2023/03/09 00:22:49;;;;;;;72.95;22.50;;;;;;;8.91;77.81;97681.38;12874297;23;20318;-61
2023/03/09 00:27:52;;;;;;;70.75;21.25;;;;;;;8.80;77.79;97671.44;12900161;23;20023;-61
2023/03/09 00:32:54;;;;;;;69.25;21.23;;;;;;;8.81;78.42;97673.09;12901873;23;20020;-60
2023/03/09 00:37:55;;;;;;;80.38;23.60;;;;;;;8.69;78.61;97673.06;12899625;23;20341;-61
2023/03/09 00:42:57;;;;;;;72.32;20.95;;;;;;;8.80;78.52;97671.44;12901161;23;20031;-61
2023/03/09 00:47:58;;;;;;;81.60;21.02;;;;;;;8.74;78.66;97678.53;12899628;23;20105;-61
2023/03/09 00:52:59;;;;;;;97.47;22.67;;;;;;;8.90;78.50;97670.88;12898510;23;20068;-61
2023/03/09 00:58:01;;;;;;;76.18;20.42;;;;;;;8.92;78.52;97679.50;12897963;23;20096;-62
2023/03/09 01:03:03;;;;;;;70.00;20.13;;;;;;;8.74;78.90;97657.13;12900678;23;20028;-61
2023/03/09 01:08:04;;;;;;;59.15;19.05;;;;;;;8.83;78.82;97646.09;12899219;23;20020;-61
2023/03/09 01:13:05;;;;;;;66.43;19.00;;;;;;;8.71;79.71;97665.63;12899189;22;20012;-63
2023/03/09 01:18:07;;;;;;;65.82;19.15;;;;;;;8.74;79.67;97658.97;12899933;23;20020;-62
2023/03/09 01:23:08;;;;;;;47.78;17.13;;;;;;;8.83;79.55;97638.06;12898349;23;20024;-65
2023/03/09 01:28:10;;;;;;;39.78;15.60;;;;;;;9.00;80.19;97625.56;12898991;23;20089;-61
2023/03/09 01:33:12;;;;;;;32.70;13.30;;;;;;;9.22;80.40;97639.22;12900369;23;20081;-61
2023/03/09 01:38:13;;;;;;;25.50;10.02;;;;;;;9.44;80.79;97638.56;12898155;23;20016;-62
2023/03/09 01:43:34;;;;;;;21.05;9.63;;;;;;;9.62;80.75;97648.38;12899549;23;20023;-62
2023/03/09 01:48:36;;;;;;;15.52;7.70;;;;;;;9.74;81.24;97662.56;12903509;23;20039;-62
2023/03/09 01:53:38;;;;;;;13.98;6.00;;;;;;;9.85;81.41;97679.66;12903677;23;20024;-62
2023/03/09 01:58:39;;;;;;;20.48;8.85;;;;;;;9.93;81.56;97690.88;12903758;23;20019;-63
2023/03/09 02:03:46;;;;;;;13.35;7.38;;;;;;;9.99;81.72;97673.00;12903516;23;20028;-62
2023/03/09 02:08:55;;;;;;;17.23;8.50;;;;;;;10.04;81.75;97659.66;12903903;23;20518;-60
2023/03/09 02:13:57;;;;;;;25.85;11.30;;;;;;;10.08;81.50;97665.38;12906631;22;20039;-62
2023/03/09 02:18:59;;;;;;;29.30;12.13;;;;;;;10.06;81.63;97684.38;12902864;23;20039;-61
2023/03/09 02:24:13;;;;;;;27.90;12.15;;;;;;;10.09;81.60;97685.78;12904447;23;20475;-60
2023/03/09 02:29:15;;;;;;;27.35;10.82;;;;;;;10.07;81.37;97715.56;12901928;23;20028;-60
2023/03/09 02:34:16;;;;;;;26.83;10.80;;;;;;;10.03;81.72;97726.97;12903496;23;20560;-61
2023/03/09 02:39:34;;;;;;;25.95;11.35;;;;;;;10.04;81.58;97734.81;12875529;23;20604;-61
2023/03/09 02:44:35;;;;;;;20.98;9.13;;;;;;;10.06;81.49;97721.16;12902482;23;20016;-59
2023/03/09 02:49:37;;;;;;;25.67;11.38;;;;;;;10.02;81.46;97739.59;12898705;23;20469;-61
2023/03/09 02:54:38;;;;;;;24.80;10.30;;;;;;;10.00;81.45;97760.50;12898677;23;20469;-63
2023/03/09 02:59:40;;;;;;;18.65;8.18;;;;;;;9.93;81.46;97762.47;12898127;23;20062;-59
2023/03/09 03:04:42;;;;;;;14.52;6.47;;;;;;;9.86;81.56;97770.66;12902650;23;20078;-60
2023/03/09 03:09:43;;;;;;;12.68;6.78;;;;;;;9.86;81.75;97792.13;12909564;22;20106;-60
2023/03/09 03:14:45;;;;;;;14.77;6.05;;;;;;;9.82;81.63;97800.88;12902854;23;20488;-59
2023/03/09 03:19:46;;;;;;;13.05;6.15;;;;;;;9.82;81.78;97820.47;12900559;23;20957;-60
2023/03/09 03:24:48;;;;;;;8.93;5.07;;;;;;;9.91;81.35;97839.72;12901923;23;20028;-61
2023/03/09 03:29:52;;;;;;;10.13;3.92;;;;;;;9.85;81.46;97848.69;12901939;23;21072;-60
2023/03/09 03:34:54;;;;;;;7.88;4.32;;;;;;;9.91;81.34;97858.50;12901423;23;20028;-60
2023/03/09 03:39:55;;;;;;;9.13;4.55;;;;;;;9.90;81.12;97870.28;12900989;23;20027;-60
2023/03/09 03:44:57;;;;;;;4.47;2.20;;;;;;;9.92;80.90;97887.78;12903003;23;20079;-61
2023/03/09 03:49:58;;;;;;;5.32;1.50;;;;;;;10.04;80.87;97903.09;12900294;23;20047;-59
2023/03/09 03:54:59;;;;;;;2.88;1.33;;;;;;;10.05;80.76;97918.97;12901855;23;20353;-60
2023/03/09 04:00:04;;;;;;;3.50;1.27;;;;;;;10.06;80.58;97933.19;12899234;23;20020;-60
2023/03/09 04:05:07;;;;;;;1.52;0.80;;;;;;;10.09;80.52;97941.59;12901062;23;20020;-59
2023/03/09 04:10:09;;;;;;;1.40;0.57;;;;;;;10.07;80.74;97956.28;12899588;22;20016;-61
2023/03/09 04:15:10;;;;;;;1.65;0.82;;;;;;;10.12;80.56;97970.66;12903178;23;20071;-61
2023/03/09 04:20:12;;;;;;;1.70;0.57;;;;;;;10.19;80.01;97970.56;12899923;23;20016;-58
2023/03/09 04:25:15;;;;;;;0.55;0.40;;;;;;;10.28;79.79;97987.13;12901067;23;20051;-60
2023/03/09 04:30:20;;;;;;;0.40;0.30;;;;;;;10.28;79.75;97997.88;12900639;23;20028;-59
2023/03/09 04:35:22;;;;;;;3.90;0.50;;;;;;;10.29;79.73;98004.88;12900702;23;20020;-59
2023/03/09 04:40:23;;;;;;;1.55;0.28;;;;;;;10.36;79.56;98019.03;12899435;23;20380;-59
2023/03/09 04:45:24;;;;;;;2.00;0.25;;;;;;;10.37;79.37;98033.28;12901571;23;20598;-59
2023/03/09 04:50:26;;;;;;;0.40;0.15;;;;;;;10.35;79.58;98051.47;12900006;23;20020;-58
2023/03/09 04:55:27;;;;;;;0.88;0.30;;;;;;;10.35;79.52;98049.63;12899750;23;20016;-59
2023/03/09 05:00:29;;;;;;;0.35;0.30;;;;;;;10.36;79.98;98061.19;12898870;23;20035;-60
2023/03/09 05:05:31;;;;;;;1.08;0.40;;;;;;;10.36;79.65;98074.63;12873402;23;20520;-61
2023/03/09 05:10:32;;;;;;;4.15;0.10;;;;;;;10.36;79.79;98080.78;12899027;22;20039;-59
2023/03/09 05:15:33;;;;;;;1.77;0.20;;;;;;;10.38;79.55;98089.44;12901067;23;20385;-59
2023/03/09 05:20:37;;;;;;;2.15;0.20;;;;;;;10.45;79.42;98097.41;12899799;23;20024;-60
2023/03/09 05:25:39;;;;;;;1.65;0.20;;;;;;;10.36;79.60;98104.97;12900215;23;20024;-61
2023/03/09 05:30:40;;;;;;;1.45;0.20;;;;;;;10.34;79.62;98115.13;12896826;23;20020;-61
2023/03/09 05:35:42;;;;;;;1.42;0.40;;;;;;;10.31;79.74;98111.03;12898241;23;20086;-61
2023/03/09 05:40:43;;;;;;;2.40;0.60;;;;;;;10.40;79.07;98121.44;12897375;23;20027;-60
2023/03/09 05:45:53;;;;;;;2.22;0.20;;;;;;;10.42;79.27;98141.66;12895554;23;20028;-60
2023/03/09 05:50:59;;;;;;;0.65;0.30;;;;;;;10.48;79.09;98150.66;12899499;23;20028;-60
2023/03/09 05:56:01;;;;;;;1.70;0.60;;;;;;;10.55;78.92;98158.63;12900355;23;20016;-61
2023/03/09 06:01:02;;;;;;;1.23;0.30;;;;;;;10.57;78.80;98159.22;12904581;23;20098;-61
2023/03/09 06:06:05;;;;;;;2.25;0.75;;;;;;;10.61;78.74;98166.56;12901330;23;20399;-59
2023/03/09 06:11:07;;;;;;;4.57;0.93;;;;;;;10.62;78.74;98181.63;12898624;22;20023;-60
2023/03/09 06:16:12;;;;;;;2.72;0.40;;;;;;;10.59;79.03;98187.47;12899208;23;20070;-62
2023/03/09 06:21:14;;;;;;;1.40;0.50;;;;;;;10.61;78.94;98203.38;12897786;23;20059;-60
2023/03/09 06:26:16;;;;;;;4.85;0.73;;;;;;;10.74;79.25;98200.47;12894848;23;20400;-60
2023/03/09 06:31:18;;;;;;;2.67;0.47;;;;;;;10.87;78.55;98213.72;12752102;23;20025;-60
2023/03/09 06:36:20;;;;;;;4.20;0.88;;;;;;;10.86;78.71;98214.78;12785183;23;20032;-61
2023/03/09 06:41:31;;;;;;;3.05;1.60;;;;;;;10.78;79.21;98219.66;12778463;23;20017;-60
2023/03/09 06:46:32;;;;;;;3.85;0.40;;;;;;;10.64;79.75;98219.03;12778158;23;20024;-59
2023/03/09 06:51:34;;;;;;;4.88;0.60;;;;;;;10.57;79.85;98229.06;12779042;23;20107;-60
2023/03/09 06:56:35;;;;;;;7.90;0.65;;;;;;;10.65;79.76;98228.75;12774765;23;20044;-59
2023/03/09 07:01:37;;;;;;;5.32;0.73;;;;;;;10.75;79.74;98242.44;12782256;23;20071;-59
2023/03/09 07:06:38;;;;;;;5.15;0.55;;;;;;;10.62;80.00;98251.50;12775989;23;20482;-61
2023/03/09 07:11:39;;;;;;;4.97;0.80;;;;;;;10.53;80.16;98269.00;12776133;23;20025;-59
2023/03/09 07:16:41;;;;;;;5.05;0.50;;;;;;;10.51;79.92;98279.97;12777770;23;20016;-61
2023/03/09 07:21:42;;;;;;;6.05;0.77;;;;;;;10.50;79.91;98294.44;12778284;23;20064;-60
2023/03/09 07:26:46;;;;;;;9.10;1.20;;;;;;;10.47;80.17;98308.31;12779394;23;20024;-59
2023/03/09 07:31:48;;;;;;;9.75;1.60;;;;;;;10.46;80.22;98319.28;12839314;23;20398;-60
2023/03/09 07:36:49;;;;;;;10.73;0.80;;;;;;;10.49;79.99;98321.53;12840582;23;20107;-59
2023/03/09 07:41:51;;;;;;;13.93;1.10;;;;;;;10.59;79.99;98337.13;12839632;23;20401;-59
2023/03/09 07:46:52;;;;;;;7.50;1.30;;;;;;;10.61;79.97;98337.72;12839234;23;20030;-59
2023/03/09 07:51:56;;;;;;;8.02;1.27;;;;;;;10.65;80.08;98346.97;12838856;23;20059;-59
2023/03/09 07:56:57;;;;;;;9.82;1.20;;;;;;;10.71;80.20;98351.44;12836624;23;20481;-59
2023/03/09 08:01:58;;;;;;;9.32;2.42;;;;;;;10.76;79.92;98351.56;12841578;23;20063;-60
2023/03/09 08:07:00;;;;;;;10.32;1.67;;;;;;;10.85;80.12;98355.56;12838811;23;20012;-59
2023/03/09 08:12:01;;;;;;;9.85;2.15;;;;;;;10.84;80.11;98367.38;12839312;23;20062;-59
2023/03/09 08:17:03;;;;;;;6.40;1.65;;;;;;;10.87;80.12;98374.97;12838310;23;20120;-59
2023/03/09 08:22:05;;;;;;;13.07;1.65;;;;;;;10.99;79.68;98382.28;12838471;23;20023;-60
2023/03/09 08:27:06;;;;;;;7.35;1.60;;;;;;;10.95;79.80;98383.78;12837381;23;20059;-60
2023/03/09 08:32:09;;;;;;;7.97;2.38;;;;;;;11.02;80.04;98390.72;12837907;23;20024;-60
2023/03/09 08:37:11;;;;;;;5.03;1.90;;;;;;;11.09;79.72;98390.63;12838259;23;20446;-58
2023/03/09 08:42:12;;;;;;;8.98;2.55;;;;;;;11.17;79.98;98408.31;12839306;23;20020;-58
2023/03/09 08:47:13;;;;;;;4.50;1.30;;;;;;;11.32;79.48;98408.72;12838547;23;20054;-59
2023/03/09 08:52:15;;;;;;;3.65;1.02;;;;;;;11.30;79.95;98408.13;12838370;23;20025;-59
2023/03/09 08:57:17;;;;;;;7.43;1.40;;;;;;;11.36;79.78;98427.91;12837354;23;20048;-59
2023/03/09 09:02:18;;;;;;;4.38;1.08;;;;;;;11.32;80.30;98432.94;12839405;23;20091;-60
2023/03/09 09:07:20;;;;;;;3.45;0.77;;;;;;;11.32;80.07;98449.88;12836951;23;20020;-61
2023/03/09 09:12:22;;;;;;;3.88;0.88;;;;;;;11.41;80.15;98449.56;12839518;23;20024;-60
2023/03/09 09:17:23;;;;;;;5.15;0.70;;;;;;;11.43;80.03;98458.22;12838571;23;20016;-61
2023/03/09 09:22:25;;;;;;;4.18;0.82;;;;;;;11.42;79.89;98460.09;12837853;23;20464;-61
2023/03/09 09:27:28;;;;;;;3.67;0.60;;;;;;;11.56;79.37;98462.59;12840135;23;20035;-60
2023/03/09 09:32:29;;;;;;;3.78;0.85;;;;;;;11.76;78.98;98467.69;12837862;23;20024;-60
2023/03/09 09:37:31;;;;;;;4.35;0.70;;;;;;;11.88;79.10;98472.03;12838214;23;20330;-60
2023/03/09 09:42:37;;;;;;;6.20;0.77;;;;;;;11.93;78.41;98475.94;12840232;23;20059;-58
2023/03/09 09:47:39;;;;;;;3.55;0.43;;;;;;;11.93;78.41;98492.94;12838007;23;20090;-60
2023/03/09 09:53:03;;;;;;;2.50;0.40;;;;;;;11.93;78.79;98495.63;12838503;23;20017;-59
2023/03/09 09:58:19;;;;;;;5.50;1.27;;;;;;;11.98;78.87;98508.41;12835788;23;20020;-59
2023/03/09 10:03:31;;;;;;;4.63;0.30;;;;;;;11.86;78.72;98513.72;12838657;23;20028;-59
2023/03/09 10:09:00;;;;;;;5.05;0.50;;;;;;;11.80;78.98;98525.41;12841026;23;20024;-59
2023/03/09 10:14:24;;;;;;;1.83;0.40;;;;;;;11.81;78.71;98517.09;12841212;23;20021;-59
2023/03/09 10:19:33;;;;;;;5.30;0.60;;;;;;;11.87;78.98;98526.16;12841584;23;20729;-60
2023/03/09 10:24:47;;;;;;;4.25;0.47;;;;;;;11.99;78.52;98535.09;12842603;23;20024;-59
2023/03/09 10:30:00;;;;;;;4.88;0.90;;;;;;;12.21;78.65;98535.38;12840779;23;20440;-60
2023/03/09 10:35:21;;;;;;;6.82;0.40;;;;;;;12.33;78.10;98534.59;12839812;23;20016;-59
2023/03/09 10:40:35;;;;;;;5.30;0.50;;;;;;;12.43;77.45;98548.28;12840610;23;20016;-59
2023/03/09 10:45:36;;;;;;;4.72;0.40;;;;;;;12.52;77.52;98544.22;12842300;23;20488;-59
2023/03/09 10:50:53;;;;;;;2.88;0.38;;;;;;;12.58;77.12;98558.59;12839774;23;20071;-59
2023/03/09 10:56:03;;;;;;;3.38;0.50;;;;;;;12.53;77.23;98566.59;12840988;23;20226;-60
2023/03/09 11:01:16;;;;;;;4.22;0.22;;;;;;;12.46;77.70;98572.91;12840509;23;20392;-60
2023/03/09 11:06:34;;;;;;;4.07;0.43;;;;;;;12.46;77.42;98572.91;12840598;23;20031;-58
2023/03/09 11:11:37;;;;;;;7.63;0.50;;;;;;;12.57;77.48;98579.34;12812749;23;20020;-59
2023/03/09 11:16:49;;;;;;;5.90;0.75;;;;;;;12.71;76.82;98588.03;12839750;23;20047;-60
2023/03/09 11:21:56;;;;;;;11.10;1.20;;;;;;;12.83;76.14;98586.16;12839797;23;20029;-60
2023/03/09 11:27:06;;;;;;;3.33;0.20;;;;;;;12.94;76.08;98586.44;12839657;23;20720;-60
2023/03/09 11:32:12;;;;;;;3.83;0.30;;;;;;;13.05;75.51;98582.88;12839828;23;20083;-60
2023/03/09 11:37:21;;;;;;;4.80;1.05;;;;;;;13.10;75.31;98596.50;12839310;23;20016;-60
2023/03/09 11:42:37;;;;;;;4.53;0.50;;;;;;;13.19;74.91;98595.09;12842417;23;20025;-59
2023/03/09 11:47:42;;;;;;;3.38;0.30;;;;;;;13.23;73.95;98601.66;12840081;23;20016;-61
2023/03/09 11:52:49;;;;;;;2.53;0.20;;;;;;;13.38;73.58;98593.06;12839994;23;20488;-60
2023/03/09 11:57:58;;;;;;;3.28;0.57;;;;;;;13.57;73.29;98591.03;12838135;23;20047;-59
2023/03/09 12:03:10;;;;;;;1.75;0.25;;;;;;;13.68;72.70;98600.16;12841580;23;20106;-59
2023/03/09 12:08:19;;;;;;;2.95;0.28;;;;;;;13.78;73.06;98605.75;12837869;23;20031;-62
2023/03/09 12:13:33;;;;;;;2.20;0.55;;;;;;;13.88;72.37;98605.97;12839616;23;20396;-59
2023/03/09 12:18:38;;;;;;;4.60;0.55;;;;;;;13.91;72.19;98601.97;12839234;23;20024;-60
2023/03/09 12:23:46;;;;;;;2.03;0.55;;;;;;;13.97;72.08;98597.50;12836333;23;20029;-60
2023/03/09 12:28:58;;;;;;;1.98;0.30;;;;;;;14.17;71.66;98591.63;12835916;23;20037;-61
2023/03/09 12:33:59;;;;;;;2.95;0.22;;;;;;;14.38;71.33;98587.41;12842564;23;20020;-64
2023/03/09 12:39:23;;;;;;;1.83;0.57;;;;;;;14.40;71.17;98572.59;12861453;23;20029;-63
2023/03/09 12:44:42;;;;;;;5.35;0.30;;;;;;;14.34;70.85;98588.97;12840141;23;20448;-63
2023/03/09 12:49:48;;;;;;;2.55;0.40;;;;;;;14.32;70.61;98597.31;12838394;23;20040;-63
2023/03/09 12:54:55;;;;;;;3.30;0.40;;;;;;;14.34;70.46;98591.66;12837946;23;20035;-62
2023/03/09 13:00:19;;;;;;;5.70;0.68;;;;;;;14.34;70.00;98583.56;12837969;23;20033;-63
2023/03/09 13:05:26;;;;;;;3.55;0.40;;;;;;;14.37;69.95;98585.75;12833886;23;20020;-63
2023/03/09 13:10:32;;;;;;;7.03;1.42;;;;;;;14.16;70.42;98589.97;12839075;23;20020;-63
2023/03/09 13:15:33;;;;;;;3.55;1.00;;;;;;;14.14;70.71;98582.16;12837021;23;20032;-63
2023/03/09 13:20:36;;;;;;;2.95;0.30;;;;;;;14.56;70.02;98586.34;12836253;23;20105;-63
2023/03/09 13:25:45;;;;;;;7.13;1.55;;;;;;;14.66;69.97;98578.44;12836561;23;20031;-63
2023/03/09 13:30:48;;;;;;;6.38;0.40;;;;;;;14.64;68.69;98585.97;12835532;23;20020;-63
2023/03/09 13:36:19;;;;;;;3.75;0.40;;;;;;;14.79;67.70;98570.00;12838604;23;20075;-62
2023/03/09 13:41:25;;;;;;;3.65;0.50;;;;;;;15.36;66.90;98574.28;12835094;23;20024;-63
2023/03/09 13:46:30;;;;;;;7.07;0.40;;;;;;;15.91;65.93;98564.38;12840015;23;20016;-63
2023/03/09 13:51:39;;;;;;;2.88;0.50;;;;;;;15.91;65.57;98561.69;12851948;23;20107;-64
2023/03/09 13:56:40;;;;;;;5.97;0.52;;;;;;;16.02;65.35;98557.19;12840175;23;20024;-63
2023/03/09 14:01:42;;;;;;;5.47;0.45;;;;;;;16.06;64.64;98558.31;12846679;23;20024;-63
2023/03/09 14:06:43;;;;;;;5.75;0.50;;;;;;;15.83;64.28;98559.44;12841594;23;20044;-61
2023/03/09 14:12:05;;;;;;;6.97;0.45;;;;;;;15.68;63.92;98562.78;12843156;23;20029;-62
2023/03/09 14:17:17;;;;;;;6.90;0.57;;;;;;;15.63;63.66;98571.63;12841083;23;20025;-62
2023/03/09 14:22:25;;;;;;;4.68;1.17;;;;;;;15.40;63.42;98577.31;12842721;23;20051;-62
2023/03/09 14:27:33;;;;;;;3.22;0.50;;;;;;;15.32;63.95;98602.91;12841298;23;20051;-62
2023/03/09 14:32:34;;;;;;;6.65;0.85;;;;;;;14.14;68.73;98600.22;12840142;23;20024;-63
2023/03/09 14:37:36;;;;;;;5.72;0.40;;;;;;;13.49;71.10;98600.34;12839987;23;20024;-59
2023/03/09 14:42:38;;;;;;;5.30;0.35;;;;;;;13.31;71.66;98587.00;12839268;23;20083;-60
2023/03/09 14:47:40;;;;;;;7.88;0.85;;;;;;;13.29;72.10;98592.63;12842576;23;20335;-60
2023/03/09 14:52:42;;;;;;;2.67;0.35;;;;;;;13.60;72.28;98568.97;12842024;23;20025;-61
2023/03/09 14:57:44;;;;;;;7.38;0.40;;;;;;;13.92;71.67;98573.91;12845199;23;20048;-62
2023/03/09 15:02:47;;;;;;;5.07;0.55;;;;;;;14.04;71.61;98571.13;12840174;23;20462;-61
2023/03/09 15:07:48;;;;;;;4.10;0.30;;;;;;;14.06;71.45;98564.44;12842833;23;20083;-61
2023/03/09 15:12:50;;;;;;;2.40;0.68;;;;;;;14.10;71.16;98570.19;12855992;23;20039;-62
2023/03/09 15:17:55;;;;;;;7.18;0.52;;;;;;;14.05;71.07;98557.38;12855329;23;20082;-61
2023/03/09 15:22:57;;;;;;;4.88;0.30;;;;;;;14.05;70.53;98567.38;12847881;23;20017;-61
2023/03/09 15:27:58;;;;;;;3.78;0.30;;;;;;;14.06;70.11;98559.03;12840827;23;20050;-65
2023/03/09 15:32:59;;;;;;;5.90;0.30;;;;;;;14.21;69.43;98563.88;12842231;23;20087;-64
2023/03/09 15:38:01;;;;;;;3.90;0.38;;;;;;;14.31;68.32;98559.72;12840259;23;20020;-63
2023/03/09 15:43:02;;;;;;;5.18;0.50;;;;;;;14.53;68.08;98563.31;12845303;23;20023;-66
2023/03/09 15:48:04;;;;;;;6.78;0.45;;;;;;;14.49;67.65;98551.34;12842710;23;20465;-66
2023/03/09 15:53:07;;;;;;;4.28;0.43;;;;;;;14.45;67.42;98561.88;12846014;23;20032;-67
2023/03/09 15:58:08;;;;;;;7.10;0.47;;;;;;;14.41;66.87;98565.28;12838815;23;20058;-59
2023/03/09 16:03:09;;;;;;;7.40;0.55;;;;;;;14.44;66.78;98562.91;12843239;23;20458;-59
2023/03/09 16:08:11;;;;;;;5.88;0.73;;;;;;;14.52;66.65;98567.09;12838584;23;20083;-61
2023/03/09 16:13:15;;;;;;;8.23;0.82;;;;;;;14.60;66.84;98552.38;12839962;23;20341;-62
2023/03/09 16:18:18;;;;;;;14.00;1.40;;;;;;;14.67;66.77;98550.31;12839767;23;20434;-62
2023/03/09 16:23:19;;;;;;;5.30;0.90;;;;;;;14.66;67.07;98556.81;12844882;23;20025;-61
2023/03/09 16:28:21;;;;;;;11.68;1.10;;;;;;;14.66;66.88;98568.44;12840799;23;20029;-63
2023/03/09 16:33:23;;;;;;;7.20;0.68;;;;;;;14.61;66.54;98565.66;12866090;23;20020;-63
2023/03/09 16:38:24;;;;;;;6.85;1.02;;;;;;;14.55;66.17;98565.78;12840321;23;20075;-63
2023/03/09 16:43:26;;;;;;;8.05;0.85;;;;;;;14.51;65.97;98556.53;12840360;23;20086;-62
2023/03/09 16:48:27;;;;;;;6.20;0.80;;;;;;;14.52;65.67;98547.38;12840653;23;20020;-61
2023/03/09 16:53:31;;;;;;;8.98;0.95;;;;;;;14.59;65.76;98558.84;12840264;23;20024;-61
2023/03/09 16:58:34;;;;;;;8.82;1.30;;;;;;;14.58;65.67;98554.50;12837067;23;20016;-60
2023/03/09 17:03:35;;;;;;;7.03;0.93;;;;;;;14.58;65.66;98557.22;12840281;23;20024;-62
2023/03/09 17:08:36;;;;;;;14.60;2.35;;;;;;;14.57;65.78;98547.44;12837983;23;20016;-63
2023/03/09 17:13:40;;;;;;;10.40;1.10;;;;;;;14.48;65.93;98528.09;12838761;23;20016;-62
2023/03/09 17:18:42;;;;;;;7.82;1.27;;;;;;;14.49;66.01;98532.44;12838700;23;20043;-62
2023/03/09 17:23:44;;;;;;;16.70;1.35;;;;;;;14.48;66.24;98533.50;12840501;23;20020;-62
2023/03/09 17:28:46;;;;;;;7.82;1.85;;;;;;;14.47;66.07;98537.25;12834647;23;20461;-62
2023/03/09 17:33:47;;;;;;;9.30;1.20;;;;;;;14.46;66.43;98544.56;12837752;23;20028;-66
2023/03/09 17:38:51;;;;;;;7.18;0.88;;;;;;;14.46;66.61;98541.84;12836415;23;20893;-65
2023/03/09 17:43:52;;;;;;;10.18;1.23;;;;;;;14.55;66.63;98531.44;12849461;23;20020;-65
2023/03/09 17:48:54;;;;;;;10.27;1.20;;;;;;;14.52;66.52;98531.94;12858061;23;20028;-66
2023/03/09 17:53:56;;;;;;;9.73;1.30;;;;;;;14.51;66.69;98532.19;12855206;23;20036;-66
2023/03/09 17:58:57;;;;;;;7.45;1.30;;;;;;;14.54;66.72;98534.41;12866086;23;20025;-65
2023/03/09 18:03:59;;;;;;;14.65;1.98;;;;;;;14.49;66.64;98524.31;12864813;23;20059;-65
2023/03/09 18:09:01;;;;;;;16.48;1.75;;;;;;;14.36;67.04;98528.19;12862026;23;20040;-64
2023/03/09 18:14:03;;;;;;;12.80;1.52;;;;;;;14.35;66.88;98520.31;12860873;23;20023;-66
2023/03/09 18:19:06;;;;;;;13.18;1.77;;;;;;;14.36;66.73;98525.47;12864230;23;20054;-66
2023/03/09 18:24:09;;;;;;;10.57;1.35;;;;;;;14.35;66.53;98514.91;12862218;23;20077;-67
2023/03/09 18:29:10;;;;;;;15.00;1.67;;;;;;;14.34;66.44;98502.47;12874123;23;20055;-66
2023/03/09 18:34:12;;;;;;;12.60;1.85;;;;;;;14.24;66.72;98503.13;12886171;23;20058;-65
2023/03/09 18:39:13;;;;;;;12.82;1.50;;;;;;;14.10;66.68;98497.22;12897326;23;20024;-66
2023/03/09 18:44:15;;;;;;;15.50;1.45;;;;;;;14.11;66.69;98487.22;12891355;23;20024;-67
2023/03/09 18:49:16;;;;;;;9.10;1.23;;;;;;;14.11;66.62;98484.53;12859531;23;20047;-67
2023/03/09 18:54:18;;;;;;;12.70;1.42;;;;;;;14.07;66.61;98479.59;12866223;23;20032;-66
2023/03/09 18:59:19;;;;;;;9.40;1.58;;;;;;;14.06;66.62;98477.16;12861332;23;20032;-66
2023/03/09 19:04:23;;;;;;;13.05;2.38;;;;;;;14.00;66.63;98478.13;12867601;23;20012;-66
2023/03/09 19:09:24;;;;;;;18.05;2.28;;;;;;;13.99;66.94;98471.91;12867292;23;20031;-66
2023/03/09 19:14:26;;;;;;;10.60;1.70;;;;;;;14.04;66.58;98454.94;12853855;23;20024;-64
2023/03/09 19:19:28;;;;;;;16.58;2.33;;;;;;;14.07;66.52;98457.19;12854846;23;20074;-64
2023/03/09 19:24:29;;;;;;;16.52;1.75;;;;;;;14.07;66.39;98443.66;12863611;23;20020;-65
2023/03/09 19:29:31;;;;;;;11.82;1.60;;;;;;;14.09;66.56;98433.44;12860103;23;20123;-65
2023/03/09 19:34:32;;;;;;;8.23;2.40;;;;;;;14.08;66.32;98421.81;12851523;23;20465;-65
2023/03/09 19:39:39;;;;;;;14.32;1.90;;;;;;;14.03;66.35;98419.03;12846437;23;20090;-66
2023/03/09 19:44:44;;;;;;;14.85;1.88;;;;;;;14.05;66.41;98406.09;12846669;23;20024;-66
2023/03/09 19:49:47;;;;;;;16.65;2.67;;;;;;;14.01;66.24;98396.03;12856679;23;20028;-65
2023/03/09 19:54:48;;;;;;;9.70;1.30;;;;;;;13.97;66.16;98392.19;12856302;23;20031;-65
2023/03/09 19:59:50;;;;;;;11.75;1.15;;;;;;;13.93;66.25;98381.06;12874210;23;20024;-64
2023/03/09 20:04:51;;;;;;;11.27;1.38;;;;;;;13.84;66.41;98372.56;12851391;23;20020;-64
2023/03/09 20:09:53;;;;;;;10.07;1.48;;;;;;;13.83;66.25;98359.28;12864749;23;20025;-65
2023/03/09 20:14:54;;;;;;;17.77;2.22;;;;;;;13.82;66.31;98352.25;12870633;23;20059;-66
2023/03/09 20:20:00;;;;;;;11.85;1.85;;;;;;;13.77;66.27;98342.19;12866257;23;20056;-65
2023/03/09 20:25:01;;;;;;;7.50;1.85;;;;;;;13.71;66.14;98326.97;12893398;23;20017;-66
2023/03/09 20:30:03;;;;;;;10.07;2.17;;;;;;;13.67;65.98;98313.13;12870648;23;20020;-65
2023/03/09 20:35:05;;;;;;;19.17;2.30;;;;;;;13.65;66.20;98300.97;12874927;23;20024;-64
2023/03/09 20:40:07;;;;;;;12.52;1.73;;;;;;;13.57;66.15;98288.69;12876220;23;20017;-65
2023/03/09 20:45:11;;;;;;;5.95;1.10;;;;;;;13.53;65.96;98281.34;12878057;23;20029;-65
2023/03/09 20:50:13;;;;;;;11.95;1.83;;;;;;;13.48;66.12;98274.78;12857617;23;20020;-67
2023/03/09 20:55:16;;;;;;;7.32;1.38;;;;;;;13.43;66.00;98273.91;12844379;23;20071;-64
2023/03/09 21:00:18;;;;;;;11.63;1.40;;;;;;;13.43;65.61;98272.00;12840742;23;20021;-63
2023/03/09 21:05:19;;;;;;;6.93;1.05;;;;;;;13.48;65.64;98265.88;12848765;23;20021;-60
2023/03/09 21:10:21;;;;;;;10.43;1.85;;;;;;;13.52;65.56;98260.81;12841865;23;20013;-65
2023/03/09 21:15:23;;;;;;;14.50;3.10;;;;;;;13.50;65.80;98263.75;12845025;23;20036;-64
2023/03/09 21:20:24;;;;;;;9.77;1.63;;;;;;;13.47;65.60;98254.25;12843455;23;20017;-62
2023/03/09 21:25:26;;;;;;;12.85;2.10;;;;;;;13.44;65.56;98235.03;12838429;23;20020;-62
2023/03/09 21:30:27;;;;;;;17.65;2.20;;;;;;;13.37;65.74;98237.91;12840904;23;20032;-63
2023/03/09 21:35:28;;;;;;;12.77;1.52;;;;;;;13.19;65.71;98217.38;12848066;23;20469;-61
2023/03/09 21:40:30;;;;;;;5.80;0.93;;;;;;;13.21;65.49;98209.00;12847228;23;20024;-64
2023/03/09 21:45:31;;;;;;;8.43;1.33;;;;;;;13.30;64.25;98212.97;12850857;23;20086;-62
2023/03/09 21:50:32;;;;;;;7.55;0.55;;;;;;;13.40;64.11;98201.50;12845735;23;20048;-63
2023/03/09 21:55:36;;;;;;;7.65;0.80;;;;;;;13.57;63.51;98188.00;12849221;23;20020;-65
2023/03/09 22:00:38;;;;;;;4.65;0.50;;;;;;;13.64;62.96;98175.94;12848343;23;20020;-63
2023/03/09 22:05:41;;;;;;;3.63;0.50;;;;;;;13.68;62.09;98173.56;12850361;23;20028;-66
2023/03/09 22:10:43;;;;;;;6.55;1.00;;;;;;;13.78;62.03;98172.88;12854039;23;20040;-64
2023/03/09 22:15:44;;;;;;;4.82;0.45;;;;;;;13.82;61.73;98158.63;12855433;23;20063;-68
2023/03/09 22:20:46;;;;;;;4.07;0.63;;;;;;;13.88;61.59;98143.28;12870523;23;20028;-67
2023/03/09 22:25:47;;;;;;;4.72;0.80;;;;;;;13.93;61.52;98139.84;12857985;23;20024;-68
2023/03/09 22:30:49;;;;;;;4.10;0.40;;;;;;;13.95;61.46;98124.19;12863224;23;20071;-68
2023/03/09 22:36:02;;;;;;;8.45;0.98;;;;;;;13.97;61.34;98122.06;12858743;23;20024;-68
2023/03/09 22:41:06;;;;;;;5.43;0.47;;;;;;;13.94;61.50;98106.34;12860870;23;20110;-68
2023/03/09 22:46:14;;;;;;;4.90;1.38;;;;;;;13.99;61.18;98098.31;12855671;23;20020;-65
2023/03/09 22:51:19;;;;;;;3.60;0.45;;;;;;;13.91;61.04;98074.47;12893785;23;20028;-66
2023/03/09 22:56:22;;;;;;;4.07;0.50;;;;;;;13.91;61.25;98060.97;12861354;23;20470;-66
2023/03/09 23:01:29;;;;;;;3.78;0.60;;;;;;;13.88;61.29;98057.69;12865845;23;20048;-66
2023/03/09 23:06:31;;;;;;;4.70;0.35;;;;;;;13.92;61.28;98058.00;12853508;23;20032;-66
2023/03/09 23:11:40;;;;;;;3.80;1.48;;;;;;;13.91;61.30;98048.25;12858408;23;20012;-67
2023/03/09 23:16:42;;;;;;;3.67;0.47;;;;;;;13.97;60.89;98041.84;12848260;23;20485;-66
2023/03/09 23:21:44;;;;;;;4.53;0.55;;;;;;;13.92;61.12;98031.00;12862116;23;20046;-66
2023/03/09 23:26:53;;;;;;;5.05;0.90;;;;;;;13.91;60.80;98015.84;12857751;23;20055;-66